TimeAKDT,TemperatureF,Dew PointF,Humidity,Sea Level PressureIn,VisibilityMPH,Wind Direction,Wind SpeedMPH,Gust SpeedMPH,PrecipitationIn,Events,Conditions,WindDirDegrees,DateUTC
12:16 AM,41.0,39.2,93,29.94,10.0,SSW,3.5,-,N/A,,Overcast,210,2011-10-24 08:16:00
12:36 AM,41.0,39.2,93,29.94,9.0,Calm,Calm,-,N/A,,Overcast,0,2011-10-24 08:36:00
12:56 AM,41.0,39.2,93,29.94,10.0,Calm,Calm,-,N/A,,Overcast,0,2011-10-24 08:56:00
1:16 AM,41.0,39.2,93,29.95,10.0,Calm,Calm,-,N/A,,Overcast,0,2011-10-24 09:16:00
1:36 AM,41.0,39.2,93,29.95,10.0,SW,3.5,-,N/A,,Overcast,220,2011-10-24 09:36:00
1:56 AM,41.0,39.2,93,29.96,10.0,Calm,Calm,-,N/A,,Overcast,0,2011-10-24 09:56:00
2:16 AM,41.0,39.2,93,29.96,9.0,Calm,Calm,-,N/A,,Overcast,0,2011-10-24 10:16:00
2:36 AM,41.0,39.2,93,29.96,10.0,Calm,Calm,-,N/A,,Overcast,0,2011-10-24 10:36:00
2:56 AM,41.0,39.2,93,29.97,8.0,Calm,Calm,-,N/A,,Overcast,0,2011-10-24 10:56:00
3:16 AM,41.0,39.2,93,29.97,10.0,Calm,Calm,-,N/A,,Overcast,0,2011-10-24 11:16:00
3:36 AM,41.0,39.2,93,29.98,10.0,Calm,Calm,-,N/A,,Overcast,0,2011-10-24 11:36:00
3:56 AM,41.0,39.2,93,29.98,10.0,Calm,Calm,-,N/A,,Overcast,0,2011-10-24 11:56:00
4:16 AM,41.0,39.2,93,29.99,8.0,Calm,Calm,-,N/A,,Overcast,0,2011-10-24 12:16:00
4:36 AM,41.0,39.2,93,29.99,10.0,Calm,Calm,-,N/A,,Overcast,0,2011-10-24 12:36:00
4:56 AM,41.0,39.2,93,29.99,10.0,Calm,Calm,-,N/A,,Overcast,0,2011-10-24 12:56:00
5:16 AM,41.0,39.2,93,30.00,10.0,Calm,Calm,-,N/A,,Overcast,0,2011-10-24 13:16:00
5:36 AM,41.0,39.2,93,30.01,10.0,Calm,Calm,-,N/A,,Overcast,0,2011-10-24 13:36:00
5:56 AM,41.0,39.2,93,30.01,10.0,Calm,Calm,-,N/A,,Overcast,0,2011-10-24 13:56:00
6:16 AM,41.0,39.2,93,30.01,10.0,Calm,Calm,-,N/A,,Overcast,0,2011-10-24 14:16:00
6:36 AM,39.2,39.2,100,30.02,10.0,Calm,Calm,-,N/A,,Overcast,0,2011-10-24 14:36:00
6:56 AM,39.2,39.2,100,30.03,7.0,Calm,Calm,-,N/A,,Overcast,0,2011-10-24 14:56:00
7:16 AM,39.2,39.2,100,30.04,7.0,Calm,Calm,-,N/A,,Overcast,0,2011-10-24 15:16:00
7:36 AM,41.0,39.2,93,30.04,1.0,Calm,Calm,-,N/A,,Overcast,0,2011-10-24 15:36:00
7:56 AM,39.2,39.2,100,30.05,0.8,Calm,Calm,-,N/A,,Overcast,0,2011-10-24 15:56:00
8:16 AM,39.2,39.2,100,30.06,0.2,Calm,Calm,-,N/A,,Mostly Cloudy,0,2011-10-24 16:16:00
8:36 AM,41.0,39.2,93,30.06,0.2,Calm,Calm,-,N/A,,Mostly Cloudy,0,2011-10-24 16:36:00
8:56 AM,41.0,39.2,93,30.07,0.2,Calm,Calm,-,N/A,,Overcast,0,2011-10-24 16:56:00
9:16 AM,41.0,39.2,93,30.08,2.0,Calm,Calm,-,N/A,,Mostly Cloudy,0,2011-10-24 17:16:00
9:36 AM,42.8,39.2,87,30.08,7.0,Calm,Calm,-,N/A,,Mostly Cloudy,0,2011-10-24 17:36:00
9:56 AM,42.8,41.0,93,30.09,7.0,Calm,Calm,-,N/A,,Overcast,0,2011-10-24 17:56:00
10:16 AM,42.8,41.0,93,30.10,7.0,Calm,Calm,-,N/A,,Overcast,0,2011-10-24 18:16:00
10:36 AM,42.8,41.0,93,30.11,10.0,Calm,Calm,-,N/A,,Mostly Cloudy,0,2011-10-24 18:36:00
10:56 AM,42.8,41.0,93,30.12,10.0,Calm,Calm,-,N/A,,Mostly Cloudy,0,2011-10-24 18:56:00
11:16 AM,42.8,39.2,87,30.13,10.0,Calm,Calm,-,N/A,,Mostly Cloudy,0,2011-10-24 19:16:00
11:36 AM,44.6,41.0,87,30.13,10.0,Calm,Calm,-,N/A,,Mostly Cloudy,0,2011-10-24 19:36:00
11:56 AM,44.6,41.0,87,30.14,10.0,Calm,Calm,-,N/A,,Overcast,0,2011-10-24 19:56:00
12:16 PM,44.6,41.0,87,30.15,10.0,Calm,Calm,-,N/A,,Overcast,0,2011-10-24 20:16:00
12:36 PM,44.6,41.0,87,30.15,10.0,ENE,3.5,-,N/A,,Overcast,70,2011-10-24 20:36:00
12:56 PM,44.6,41.0,87,30.16,10.0,Calm,Calm,-,N/A,,Overcast,0,2011-10-24 20:56:00
1:16 PM,44.6,41.0,87,30.16,10.0,NNE,3.5,-,N/A,,Overcast,30,2011-10-24 21:16:00
1:36 PM,44.6,41.0,87,30.17,10.0,Calm,Calm,-,N/A,,Overcast,0,2011-10-24 21:36:00
1:56 PM,44.6,41.0,87,30.17,10.0,Calm,Calm,-,N/A,,Overcast,0,2011-10-24 21:56:00
2:16 PM,44.6,41.0,87,30.17,10.0,Calm,Calm,-,N/A,,Overcast,0,2011-10-24 22:16:00
2:36 PM,44.6,41.0,87,30.18,10.0,Calm,Calm,-,N/A,,Overcast,0,2011-10-24 22:36:00
2:56 PM,44.6,42.8,93,30.19,10.0,Calm,Calm,-,N/A,,Overcast,0,2011-10-24 22:56:00
3:16 PM,44.6,42.8,93,30.19,10.0,Calm,Calm,-,N/A,,Overcast,0,2011-10-24 23:16:00
3:36 PM,44.6,42.8,93,30.20,10.0,North,3.5,-,N/A,,Overcast,350,2011-10-24 23:36:00
3:56 PM,44.6,42.8,93,30.20,10.0,North,3.5,-,N/A,,Overcast,360,2011-10-24 23:56:00
4:16 PM,44.6,42.8,93,30.21,10.0,NNE,3.5,-,N/A,,Overcast,20,2011-10-25 00:16:00
4:36 PM,44.6,42.8,93,30.21,10.0,Calm,Calm,-,N/A,,Overcast,0,2011-10-25 00:36:00
4:56 PM,44.6,42.8,93,30.22,10.0,Calm,Calm,-,N/A,,Mostly Cloudy,0,2011-10-25 00:56:00
5:16 PM,44.6,42.8,93,30.22,10.0,Calm,Calm,-,N/A,,Mostly Cloudy,0,2011-10-25 01:16:00
5:36 PM,44.6,42.8,93,30.23,10.0,Calm,Calm,-,N/A,,Mostly Cloudy,0,2011-10-25 01:36:00
5:56 PM,44.6,42.8,93,30.23,10.0,Calm,Calm,-,N/A,,Overcast,0,2011-10-25 01:56:00
6:16 PM,42.8,42.8,100,30.24,10.0,SSW,3.5,-,N/A,,Overcast,200,2011-10-25 02:16:00
6:36 PM,42.8,42.8,100,30.24,10.0,SE,3.5,-,N/A,,Overcast,140,2011-10-25 02:36:00
6:56 PM,42.8,41.0,93,30.25,10.0,SSE,3.5,-,N/A,,Overcast,160,2011-10-25 02:56:00
7:16 PM,42.8,39.2,87,30.25,10.0,Calm,Calm,-,N/A,,Overcast,0,2011-10-25 03:16:00
7:36 PM,42.8,41.0,93,30.26,10.0,West,3.5,-,N/A,,Overcast,270,2011-10-25 03:36:00
7:56 PM,42.8,41.0,93,30.26,10.0,SW,3.5,-,N/A,,Overcast,230,2011-10-25 03:56:00
8:16 PM,42.8,39.2,87,30.27,10.0,Calm,Calm,-,N/A,,Overcast,0,2011-10-25 04:16:00
8:36 PM,42.8,39.2,87,30.26,10.0,South,3.5,-,N/A,,Overcast,180,2011-10-25 04:36:00
8:56 PM,41.0,39.2,93,30.27,10.0,Calm,Calm,-,N/A,,Overcast,0,2011-10-25 04:56:00
9:16 PM,41.0,39.2,93,30.27,10.0,Calm,Calm,-,N/A,,Overcast,0,2011-10-25 05:16:00
9:36 PM,41.0,39.2,93,30.28,10.0,Calm,Calm,-,N/A,,Overcast,0,2011-10-25 05:36:00
9:56 PM,42.8,39.2,87,30.28,10.0,Calm,Calm,-,N/A,,Overcast,0,2011-10-25 05:56:00
10:16 PM,41.0,39.2,93,30.29,10.0,Calm,Calm,-,N/A,,Overcast,0,2011-10-25 06:16:00
10:36 PM,41.0,39.2,93,30.28,6.0,Calm,Calm,-,N/A,,Overcast,0,2011-10-25 06:36:00
10:56 PM,41.0,39.2,93,30.28,10.0,Calm,Calm,-,N/A,,Overcast,0,2011-10-25 06:56:00
11:16 PM,41.0,39.2,93,30.29,10.0,SSW,3.5,-,N/A,,Overcast,210,2011-10-25 07:16:00
11:36 PM,42.8,39.2,87,30.29,10.0,Calm,Calm,-,N/A,,Mostly Cloudy,0,2011-10-25 07:36:00
11:56 PM,39.2,39.2,100,30.29,10.0,Calm,Calm,-,N/A,,Overcast,0,2011-10-25 07:56:00